sensor_id;sensor_type;location;lat;lon;timestamp;P1;durP1;ratioP1;P2;durP2;ratioP2
38224;SDS011;24025;48.138;11.428;2023-11-22T00:00:39;12.00;;;6.43;;
38224;SDS011;24025;48.138;11.428;2023-11-22T00:03:11;11.70;;;6.28;;
38224;SDS011;24025;48.138;11.428;2023-11-22T00:05:42;13.77;;;5.85;;
38224;SDS011;24025;48.138;11.428;2023-11-22T00:08:14;12.73;;;6.67;;
38224;SDS011;24025;48.138;11.428;2023-11-22T00:10:46;10.35;;;5.80;;
38224;SDS011;24025;48.138;11.428;2023-11-22T00:13:17;8.35;;;5.40;;
38224;SDS011;24025;48.138;11.428;2023-11-22T00:15:49;10.85;;;6.22;;
38224;SDS011;24025;48.138;11.428;2023-11-22T00:20:54;12.98;;;5.93;;
38224;SDS011;24025;48.138;11.428;2023-11-22T00:23:26;9.82;;;6.63;;
38224;SDS011;24025;48.138;11.428;2023-11-22T00:26:01;13.48;;;7.05;;
38224;SDS011;24025;48.138;11.428;2023-11-22T00:28:32;9.13;;;5.63;;
38224;SDS011;24025;48.138;11.428;2023-11-22T00:31:04;10.07;;;5.90;;
38224;SDS011;24025;48.138;11.428;2023-11-22T00:33:36;15.90;;;6.68;;
38224;SDS011;24025;48.138;11.428;2023-11-22T00:36:08;11.38;;;6.57;;
38224;SDS011;24025;48.138;11.428;2023-11-22T00:38:39;11.73;;;7.10;;
38224;SDS011;24025;48.138;11.428;2023-11-22T00:41:11;10.30;;;6.47;;
38224;SDS011;24025;48.138;11.428;2023-11-22T00:43:42;11.70;;;6.43;;
38224;SDS011;24025;48.138;11.428;2023-11-22T00:46:14;16.03;;;7.33;;
38224;SDS011;24025;48.138;11.428;2023-11-22T00:48:46;13.98;;;6.90;;
38224;SDS011;24025;48.138;11.428;2023-11-22T00:51:17;12.40;;;6.43;;
38224;SDS011;24025;48.138;11.428;2023-11-22T00:53:50;14.65;;;7.05;;
38224;SDS011;24025;48.138;11.428;2023-11-22T00:56:23;11.00;;;7.13;;
38224;SDS011;24025;48.138;11.428;2023-11-22T00:58:54;15.50;;;7.20;;
38224;SDS011;24025;48.138;11.428;2023-11-22T01:01:26;14.05;;;8.00;;
38224;SDS011;24025;48.138;11.428;2023-11-22T01:03:58;13.85;;;7.07;;
38224;SDS011;24025;48.138;11.428;2023-11-22T01:06:30;17.52;;;7.80;;
38224;SDS011;24025;48.138;11.428;2023-11-22T01:09:03;17.00;;;7.22;;
38224;SDS011;24025;48.138;11.428;2023-11-22T01:11:35;14.27;;;7.65;;
38224;SDS011;24025;48.138;11.428;2023-11-22T01:14:06;14.97;;;7.27;;
38224;SDS011;24025;48.138;11.428;2023-11-22T01:16:38;13.50;;;8.20;;
38224;SDS011;24025;48.138;11.428;2023-11-22T01:19:10;14.93;;;7.30;;
38224;SDS011;24025;48.138;11.428;2023-11-22T01:21:42;16.52;;;8.02;;
38224;SDS011;24025;48.138;11.428;2023-11-22T01:24:15;14.90;;;7.90;;
38224;SDS011;24025;48.138;11.428;2023-11-22T01:26:47;19.35;;;7.70;;
38224;SDS011;24025;48.138;11.428;2023-11-22T01:29:19;13.03;;;7.83;;
38224;SDS011;24025;48.138;11.428;2023-11-22T01:31:50;13.88;;;7.75;;
38224;SDS011;24025;48.138;11.428;2023-11-22T01:34:22;11.27;;;7.50;;
38224;SDS011;24025;48.138;11.428;2023-11-22T01:36:54;14.40;;;8.35;;
38224;SDS011;24025;48.138;11.428;2023-11-22T01:39:25;17.07;;;8.20;;
38224;SDS011;24025;48.138;11.428;2023-11-22T01:41:59;14.30;;;8.40;;
38224;SDS011;24025;48.138;11.428;2023-11-22T01:44:30;15.00;;;7.93;;
38224;SDS011;24025;48.138;11.428;2023-11-22T01:47:04;28.02;;;8.63;;
38224;SDS011;24025;48.138;11.428;2023-11-22T01:49:36;18.98;;;8.82;;
38224;SDS011;24025;48.138;11.428;2023-11-22T01:52:07;18.30;;;9.43;;
38224;SDS011;24025;48.138;11.428;2023-11-22T01:54:39;16.73;;;8.70;;
38224;SDS011;24025;48.138;11.428;2023-11-22T01:57:12;16.55;;;8.38;;
38224;SDS011;24025;48.138;11.428;2023-11-22T01:59:45;14.20;;;8.02;;
38224;SDS011;24025;48.138;11.428;2023-11-22T02:02:18;16.00;;;7.80;;
38224;SDS011;24025;48.138;11.428;2023-11-22T02:04:51;14.60;;;8.23;;
38224;SDS011;24025;48.138;11.428;2023-11-22T02:07:23;15.60;;;7.60;;
38224;SDS011;24025;48.138;11.428;2023-11-22T02:09:54;16.60;;;8.48;;
38224;SDS011;24025;48.138;11.428;2023-11-22T02:12:28;15.90;;;7.68;;
38224;SDS011;24025;48.138;11.428;2023-11-22T02:15:00;16.67;;;8.77;;
38224;SDS011;24025;48.138;11.428;2023-11-22T02:17:31;8.32;;;4.57;;
38224;SDS011;24025;48.138;11.428;2023-11-22T02:20:06;7.65;;;3.72;;
38224;SDS011;24025;48.138;11.428;2023-11-22T02:22:44;5.22;;;3.63;;
38224;SDS011;24025;48.138;11.428;2023-11-22T02:25:17;4.03;;;3.33;;
38224;SDS011;24025;48.138;11.428;2023-11-22T02:27:48;4.20;;;3.28;;
38224;SDS011;24025;48.138;11.428;2023-11-22T02:30:20;3.67;;;2.90;;
38224;SDS011;24025;48.138;11.428;2023-11-22T02:32:52;3.83;;;2.88;;
38224;SDS011;24025;48.138;11.428;2023-11-22T02:40:30;3.92;;;2.30;;
38224;SDS011;24025;48.138;11.428;2023-11-22T02:43:02;2.03;;;1.63;;
38224;SDS011;24025;48.138;11.428;2023-11-22T02:45:40;2.50;;;1.50;;
38224;SDS011;24025;48.138;11.428;2023-11-22T02:48:13;3.38;;;1.67;;
38224;SDS011;24025;48.138;11.428;2023-11-22T02:50:45;2.85;;;1.77;;
38224;SDS011;24025;48.138;11.428;2023-11-22T02:53:17;2.60;;;1.83;;
38224;SDS011;24025;48.138;11.428;2023-11-22T02:55:48;1.88;;;1.27;;
38224;SDS011;24025;48.138;11.428;2023-11-22T02:58:20;2.17;;;1.30;;
38224;SDS011;24025;48.138;11.428;2023-11-22T03:00:51;2.83;;;1.50;;
38224;SDS011;24025;48.138;11.428;2023-11-22T03:03:26;2.22;;;1.40;;
38224;SDS011;24025;48.138;11.428;2023-11-22T03:08:29;2.03;;;1.17;;
38224;SDS011;24025;48.138;11.428;2023-11-22T03:11:01;2.05;;;1.45;;
38224;SDS011;24025;48.138;11.428;2023-11-22T03:13:33;2.53;;;1.20;;
38224;SDS011;24025;48.138;11.428;2023-11-22T03:16:05;2.50;;;1.40;;
38224;SDS011;24025;48.138;11.428;2023-11-22T03:18:36;1.17;;;1.08;;
38224;SDS011;24025;48.138;11.428;2023-11-22T03:21:09;1.25;;;0.85;;
38224;SDS011;24025;48.138;11.428;2023-11-22T03:23:41;1.38;;;0.93;;
38224;SDS011;24025;48.138;11.428;2023-11-22T03:26:13;1.25;;;1.05;;
38224;SDS011;24025;48.138;11.428;2023-11-22T03:28:45;1.67;;;1.00;;
38224;SDS011;24025;48.138;11.428;2023-11-22T03:31:17;1.20;;;1.00;;
38224;SDS011;24025;48.138;11.428;2023-11-22T03:33:48;1.50;;;1.07;;
38224;SDS011;24025;48.138;11.428;2023-11-22T03:36:20;2.60;;;1.20;;
38224;SDS011;24025;48.138;11.428;2023-11-22T03:38:54;1.48;;;1.17;;
38224;SDS011;24025;48.138;11.428;2023-11-22T03:41:25;2.90;;;1.50;;
38224;SDS011;24025;48.138;11.428;2023-11-22T03:43:57;2.80;;;1.73;;
38224;SDS011;24025;48.138;11.428;2023-11-22T03:46:28;2.70;;;1.97;;
38224;SDS011;24025;48.138;11.428;2023-11-22T03:49:00;3.13;;;0.95;;
38224;SDS011;24025;48.138;11.428;2023-11-22T03:51:32;4.43;;;1.60;;
38224;SDS011;24025;48.138;11.428;2023-11-22T03:54:04;2.00;;;1.30;;
38224;SDS011;24025;48.138;11.428;2023-11-22T03:56:36;2.00;;;1.13;;
38224;SDS011;24025;48.138;11.428;2023-11-22T03:59:08;1.55;;;1.38;;
38224;SDS011;24025;48.138;11.428;2023-11-22T04:01:39;15.67;;;1.70;;
38224;SDS011;24025;48.138;11.428;2023-11-22T04:04:11;3.28;;;1.45;;
38224;SDS011;24025;48.138;11.428;2023-11-22T04:06:43;3.00;;;1.65;;
38224;SDS011;24025;48.138;11.428;2023-11-22T04:09:14;3.00;;;1.63;;
38224;SDS011;24025;48.138;11.428;2023-11-22T04:11:48;3.45;;;1.48;;
38224;SDS011;24025;48.138;11.428;2023-11-22T04:14:19;3.13;;;2.03;;
38224;SDS011;24025;48.138;11.428;2023-11-22T04:16:53;1.52;;;1.30;;
38224;SDS011;24025;48.138;11.428;2023-11-22T04:19:25;2.80;;;1.70;;
38224;SDS011;24025;48.138;11.428;2023-11-22T04:21:57;1.92;;;1.35;;
38224;SDS011;24025;48.138;11.428;2023-11-22T04:24:30;1.65;;;1.08;;
38224;SDS011;24025;48.138;11.428;2023-11-22T04:27:03;2.47;;;1.13;;
38224;SDS011;24025;48.138;11.428;2023-11-22T04:29:34;3.85;;;1.27;;
38224;SDS011;24025;48.138;11.428;2023-11-22T04:32:06;1.33;;;0.90;;
38224;SDS011;24025;48.138;11.428;2023-11-22T04:34:37;1.65;;;1.17;;
38224;SDS011;24025;48.138;11.428;2023-11-22T04:37:09;1.50;;;1.10;;
38224;SDS011;24025;48.138;11.428;2023-11-22T04:39:40;2.23;;;1.33;;
38224;SDS011;24025;48.138;11.428;2023-11-22T04:42:12;1.70;;;1.10;;
38224;SDS011;24025;48.138;11.428;2023-11-22T04:44:44;1.60;;;1.10;;
38224;SDS011;24025;48.138;11.428;2023-11-22T04:47:15;1.98;;;1.33;;
38224;SDS011;24025;48.138;11.428;2023-11-22T04:49:47;2.70;;;1.20;;
38224;SDS011;24025;48.138;11.428;2023-11-22T04:52:19;1.30;;;1.10;;
38224;SDS011;24025;48.138;11.428;2023-11-22T04:54:51;1.92;;;1.08;;
38224;SDS011;24025;48.138;11.428;2023-11-22T04:57:22;2.47;;;1.20;;
38224;SDS011;24025;48.138;11.428;2023-11-22T04:59:54;3.60;;;1.07;;
38224;SDS011;24025;48.138;11.428;2023-11-22T05:02:26;2.35;;;1.27;;
38224;SDS011;24025;48.138;11.428;2023-11-22T05:04:58;2.40;;;1.25;;
38224;SDS011;24025;48.138;11.428;2023-11-22T05:07:29;1.23;;;0.90;;
38224;SDS011;24025;48.138;11.428;2023-11-22T05:10:01;2.23;;;1.03;;
38224;SDS011;24025;48.138;11.428;2023-11-22T05:12:34;1.58;;;0.90;;
38224;SDS011;24025;48.138;11.428;2023-11-22T05:15:06;2.80;;;1.00;;
38224;SDS011;24025;48.138;11.428;2023-11-22T05:17:38;1.70;;;1.02;;
38224;SDS011;24025;48.138;11.428;2023-11-22T05:20:10;2.13;;;1.33;;
38224;SDS011;24025;48.138;11.428;2023-11-22T05:22:42;3.55;;;0.80;;
38224;SDS011;24025;48.138;11.428;2023-11-22T05:25:13;4.50;;;1.13;;
38224;SDS011;24025;48.138;11.428;2023-11-22T05:27:45;1.43;;;1.20;;
38224;SDS011;24025;48.138;11.428;2023-11-22T05:30:17;1.63;;;1.05;;
38224;SDS011;24025;48.138;11.428;2023-11-22T05:32:49;1.20;;;0.77;;
38224;SDS011;24025;48.138;11.428;2023-11-22T05:35:21;2.08;;;0.85;;
38224;SDS011;24025;48.138;11.428;2023-11-22T05:37:52;0.98;;;0.80;;
38224;SDS011;24025;48.138;11.428;2023-11-22T05:40:24;2.28;;;1.00;;
38224;SDS011;24025;48.138;11.428;2023-11-22T05:42:56;1.33;;;0.85;;
38224;SDS011;24025;48.138;11.428;2023-11-22T05:45:28;1.23;;;0.95;;
38224;SDS011;24025;48.138;11.428;2023-11-22T05:48:00;1.85;;;1.08;;
38224;SDS011;24025;48.138;11.428;2023-11-22T05:50:32;1.85;;;1.17;;
38224;SDS011;24025;48.138;11.428;2023-11-22T05:53:04;1.52;;;0.90;;
38224;SDS011;24025;48.138;11.428;2023-11-22T05:55:36;2.85;;;1.48;;
38224;SDS011;24025;48.138;11.428;2023-11-22T05:58:08;1.75;;;1.17;;
38224;SDS011;24025;48.138;11.428;2023-11-22T06:00:40;1.13;;;0.73;;
38224;SDS011;24025;48.138;11.428;2023-11-22T06:03:12;2.27;;;1.07;;
38224;SDS011;24025;48.138;11.428;2023-11-22T06:08:16;1.17;;;0.80;;
38224;SDS011;24025;48.138;11.428;2023-11-22T06:10:48;1.73;;;1.02;;
38224;SDS011;24025;48.138;11.428;2023-11-22T06:13:19;1.80;;;1.27;;
38224;SDS011;24025;48.138;11.428;2023-11-22T06:15:51;4.27;;;1.33;;
38224;SDS011;24025;48.138;11.428;2023-11-22T06:18:23;1.98;;;1.02;;
38224;SDS011;24025;48.138;11.428;2023-11-22T06:21:00;1.23;;;1.00;;
38224;SDS011;24025;48.138;11.428;2023-11-22T06:23:32;3.00;;;1.00;;
38224;SDS011;24025;48.138;11.428;2023-11-22T06:26:04;2.95;;;1.63;;
38224;SDS011;24025;48.138;11.428;2023-11-22T06:28:37;1.92;;;1.23;;
38224;SDS011;24025;48.138;11.428;2023-11-22T06:31:09;2.87;;;1.40;;
38224;SDS011;24025;48.138;11.428;2023-11-22T06:33:40;3.63;;;2.03;;
38224;SDS011;24025;48.138;11.428;2023-11-22T06:36:12;3.73;;;1.90;;
38224;SDS011;24025;48.138;11.428;2023-11-22T06:38:45;3.42;;;1.98;;
38224;SDS011;24025;48.138;11.428;2023-11-22T06:41:17;3.05;;;1.80;;
38224;SDS011;24025;48.138;11.428;2023-11-22T06:43:49;2.38;;;1.30;;
38224;SDS011;24025;48.138;11.428;2023-11-22T06:46:21;2.33;;;1.42;;
38224;SDS011;24025;48.138;11.428;2023-11-22T06:48:54;2.15;;;1.42;;
38224;SDS011;24025;48.138;11.428;2023-11-22T06:51:27;1.88;;;1.23;;
38224;SDS011;24025;48.138;11.428;2023-11-22T06:53:59;1.35;;;1.08;;
38224;SDS011;24025;48.138;11.428;2023-11-22T06:56:32;2.53;;;1.40;;
38224;SDS011;24025;48.138;11.428;2023-11-22T06:59:04;2.92;;;1.60;;
38224;SDS011;24025;48.138;11.428;2023-11-22T07:01:36;4.43;;;1.02;;
38224;SDS011;24025;48.138;11.428;2023-11-22T07:04:07;1.80;;;1.08;;
38224;SDS011;24025;48.138;11.428;2023-11-22T07:06:39;2.53;;;1.33;;
38224;SDS011;24025;48.138;11.428;2023-11-22T07:09:11;2.05;;;1.23;;
38224;SDS011;24025;48.138;11.428;2023-11-22T07:11:44;2.22;;;1.30;;
38224;SDS011;24025;48.138;11.428;2023-11-22T07:14:16;3.58;;;2.00;;
38224;SDS011;24025;48.138;11.428;2023-11-22T07:16:48;2.13;;;1.27;;
38224;SDS011;24025;48.138;11.428;2023-11-22T07:19:21;2.10;;;1.48;;
38224;SDS011;24025;48.138;11.428;2023-11-22T07:21:53;1.98;;;1.30;;
38224;SDS011;24025;48.138;11.428;2023-11-22T07:24:24;2.15;;;1.33;;
38224;SDS011;24025;48.138;11.428;2023-11-22T07:26:56;2.00;;;1.02;;
38224;SDS011;24025;48.138;11.428;2023-11-22T07:29:28;2.90;;;1.17;;
38224;SDS011;24025;48.138;11.428;2023-11-22T07:32:01;3.85;;;2.10;;
38224;SDS011;24025;48.138;11.428;2023-11-22T07:34:32;2.33;;;1.58;;
38224;SDS011;24025;48.138;11.428;2023-11-22T07:37:05;2.30;;;1.70;;
38224;SDS011;24025;48.138;11.428;2023-11-22T07:39:40;3.10;;;1.90;;
38224;SDS011;24025;48.138;11.428;2023-11-22T07:42:14;3.20;;;1.80;;
38224;SDS011;24025;48.138;11.428;2023-11-22T07:44:45;3.70;;;1.70;;
38224;SDS011;24025;48.138;11.428;2023-11-22T07:47:18;2.70;;;1.67;;
38224;SDS011;24025;48.138;11.428;2023-11-22T07:49:50;2.30;;;1.77;;
38224;SDS011;24025;48.138;11.428;2023-11-22T07:52:23;2.08;;;1.20;;
38224;SDS011;24025;48.138;11.428;2023-11-22T07:55:00;3.22;;;2.05;;
38224;SDS011;24025;48.138;11.428;2023-11-22T07:57:32;3.75;;;2.35;;
38224;SDS011;24025;48.138;11.428;2023-11-22T08:00:05;4.65;;;2.17;;
38224;SDS011;24025;48.138;11.428;2023-11-22T08:02:39;4.32;;;2.20;;
38224;SDS011;24025;48.138;11.428;2023-11-22T08:05:11;4.10;;;2.08;;
38224;SDS011;24025;48.138;11.428;2023-11-22T08:07:43;2.97;;;1.88;;
38224;SDS011;24025;48.138;11.428;2023-11-22T08:10:19;2.75;;;2.00;;
38224;SDS011;24025;48.138;11.428;2023-11-22T08:12:51;3.58;;;2.13;;
38224;SDS011;24025;48.138;11.428;2023-11-22T08:15:23;2.97;;;2.25;;
38224;SDS011;24025;48.138;11.428;2023-11-22T08:17:55;3.72;;;2.60;;
38224;SDS011;24025;48.138;11.428;2023-11-22T08:20:27;4.93;;;1.88;;
38224;SDS011;24025;48.138;11.428;2023-11-22T08:22:58;3.20;;;2.45;;
38224;SDS011;24025;48.138;11.428;2023-11-22T08:25:31;4.68;;;2.30;;
38224;SDS011;24025;48.138;11.428;2023-11-22T08:28:03;2.88;;;2.03;;
38224;SDS011;24025;48.138;11.428;2023-11-22T08:30:35;5.90;;;2.38;;
38224;SDS011;24025;48.138;11.428;2023-11-22T08:33:07;3.03;;;2.30;;
38224;SDS011;24025;48.138;11.428;2023-11-22T08:35:39;3.08;;;2.42;;
38224;SDS011;24025;48.138;11.428;2023-11-22T08:38:10;2.95;;;1.77;;
38224;SDS011;24025;48.138;11.428;2023-11-22T08:40:43;3.22;;;2.08;;
38224;SDS011;24025;48.138;11.428;2023-11-22T08:43:14;8.60;;;2.63;;
38224;SDS011;24025;48.138;11.428;2023-11-22T08:45:49;3.47;;;2.15;;
38224;SDS011;24025;48.138;11.428;2023-11-22T08:48:31;2.97;;;1.95;;
38224;SDS011;24025;48.138;11.428;2023-11-22T08:51:03;2.53;;;2.20;;
38224;SDS011;24025;48.138;11.428;2023-11-22T08:53:35;3.42;;;2.30;;
38224;SDS011;24025;48.138;11.428;2023-11-22T08:58:41;4.32;;;1.70;;
38224;SDS011;24025;48.138;11.428;2023-11-22T09:01:14;4.70;;;1.77;;
38224;SDS011;24025;48.138;11.428;2023-11-22T09:06:18;3.40;;;1.70;;
38224;SDS011;24025;48.138;11.428;2023-11-22T09:08:50;2.75;;;1.85;;
38224;SDS011;24025;48.138;11.428;2023-11-22T09:11:22;3.50;;;1.65;;
38224;SDS011;24025;48.138;11.428;2023-11-22T09:13:54;2.75;;;1.67;;
38224;SDS011;24025;48.138;11.428;2023-11-22T09:16:28;3.20;;;1.98;;
38224;SDS011;24025;48.138;11.428;2023-11-22T09:19:00;2.50;;;1.55;;
38224;SDS011;24025;48.138;11.428;2023-11-22T09:21:32;2.80;;;2.15;;
38224;SDS011;24025;48.138;11.428;2023-11-22T09:24:04;2.67;;;1.85;;
38224;SDS011;24025;48.138;11.428;2023-11-22T09:26:37;3.78;;;1.95;;
38224;SDS011;24025;48.138;11.428;2023-11-22T09:29:10;3.08;;;1.83;;
38224;SDS011;24025;48.138;11.428;2023-11-22T09:31:45;5.65;;;2.42;;
38224;SDS011;24025;48.138;11.428;2023-11-22T09:34:19;4.10;;;2.15;;
38224;SDS011;24025;48.138;11.428;2023-11-22T09:36:51;3.20;;;1.83;;
38224;SDS011;24025;48.138;11.428;2023-11-22T09:39:25;4.20;;;2.00;;
38224;SDS011;24025;48.138;11.428;2023-11-22T09:41:58;3.20;;;2.15;;
38224;SDS011;24025;48.138;11.428;2023-11-22T09:44:30;3.53;;;2.05;;
38224;SDS011;24025;48.138;11.428;2023-11-22T09:47:04;4.32;;;2.22;;
38224;SDS011;24025;48.138;11.428;2023-11-22T09:49:37;1.80;;;1.25;;
38224;SDS011;24025;48.138;11.428;2023-11-22T09:52:11;3.22;;;1.92;;
38224;SDS011;24025;48.138;11.428;2023-11-22T09:54:50;6.82;;;2.40;;
38224;SDS011;24025;48.138;11.428;2023-11-22T09:57:24;3.00;;;1.85;;
38224;SDS011;24025;48.138;11.428;2023-11-22T10:02:31;2.80;;;1.80;;
38224;SDS011;24025;48.138;11.428;2023-11-22T10:05:03;2.75;;;1.80;;
38224;SDS011;24025;48.138;11.428;2023-11-22T10:07:35;3.50;;;2.15;;
38224;SDS011;24025;48.138;11.428;2023-11-22T10:10:10;3.08;;;1.88;;
38224;SDS011;24025;48.138;11.428;2023-11-22T10:12:46;2.08;;;1.67;;
38224;SDS011;24025;48.138;11.428;2023-11-22T10:17:56;1.77;;;1.42;;
38224;SDS011;24025;48.138;11.428;2023-11-22T10:20:39;2.88;;;1.80;;
38224;SDS011;24025;48.138;11.428;2023-11-22T10:23:12;3.58;;;1.73;;
38224;SDS011;24025;48.138;11.428;2023-11-22T10:25:46;5.47;;;2.60;;
38224;SDS011;24025;48.138;11.428;2023-11-22T10:28:21;2.85;;;2.03;;
38224;SDS011;24025;48.138;11.428;2023-11-22T10:30:56;2.35;;;1.67;;
38224;SDS011;24025;48.138;11.428;2023-11-22T10:33:27;3.00;;;2.03;;
38224;SDS011;24025;48.138;11.428;2023-11-22T10:36:02;2.30;;;1.67;;
38224;SDS011;24025;48.138;11.428;2023-11-22T10:38:34;5.63;;;1.70;;
38224;SDS011;24025;48.138;11.428;2023-11-22T10:41:09;3.60;;;2.20;;
38224;SDS011;24025;48.138;11.428;2023-11-22T10:43:41;5.35;;;1.90;;
38224;SDS011;24025;48.138;11.428;2023-11-22T10:46:15;3.75;;;2.03;;
38224;SDS011;24025;48.138;11.428;2023-11-22T10:48:48;2.25;;;1.40;;
38224;SDS011;24025;48.138;11.428;2023-11-22T10:51:20;3.55;;;1.63;;
38224;SDS011;24025;48.138;11.428;2023-11-22T10:53:54;2.13;;;1.63;;
38224;SDS011;24025;48.138;11.428;2023-11-22T10:56:26;5.72;;;1.35;;
38224;SDS011;24025;48.138;11.428;2023-11-22T10:58:59;2.28;;;1.55;;
38224;SDS011;24025;48.138;11.428;2023-11-22T11:01:35;2.22;;;1.55;;
38224;SDS011;24025;48.138;11.428;2023-11-22T11:04:09;4.47;;;1.58;;
38224;SDS011;24025;48.138;11.428;2023-11-22T11:06:43;2.00;;;1.80;;
38224;SDS011;24025;48.138;11.428;2023-11-22T11:09:18;2.47;;;1.65;;
38224;SDS011;24025;48.138;11.428;2023-11-22T11:11:53;2.55;;;1.58;;
38224;SDS011;24025;48.138;11.428;2023-11-22T11:14:26;2.42;;;1.42;;
38224;SDS011;24025;48.138;11.428;2023-11-22T11:16:58;2.72;;;1.77;;
38224;SDS011;24025;48.138;11.428;2023-11-22T11:22:07;1.98;;;1.50;;
38224;SDS011;24025;48.138;11.428;2023-11-22T11:24:42;2.55;;;1.58;;
38224;SDS011;24025;48.138;11.428;2023-11-22T11:27:21;2.45;;;1.85;;
38224;SDS011;24025;48.138;11.428;2023-11-22T11:29:53;2.90;;;1.70;;
38224;SDS011;24025;48.138;11.428;2023-11-22T11:32:31;2.40;;;1.42;;
38224;SDS011;24025;48.138;11.428;2023-11-22T11:35:10;4.70;;;4.18;;
38224;SDS011;24025;48.138;11.428;2023-11-22T11:37:46;3.67;;;2.15;;
38224;SDS011;24025;48.138;11.428;2023-11-22T11:40:31;3.10;;;2.25;;
38224;SDS011;24025;48.138;11.428;2023-11-22T11:43:04;4.22;;;2.65;;
38224;SDS011;24025;48.138;11.428;2023-11-22T11:45:39;3.17;;;2.13;;
38224;SDS011;24025;48.138;11.428;2023-11-22T11:48:18;4.57;;;1.80;;
38224;SDS011;24025;48.138;11.428;2023-11-22T11:50:52;2.60;;;2.03;;
38224;SDS011;24025;48.138;11.428;2023-11-22T11:53:23;2.38;;;1.90;;
38224;SDS011;24025;48.138;11.428;2023-11-22T11:55:56;2.85;;;1.80;;
38224;SDS011;24025;48.138;11.428;2023-11-22T11:58:28;3.67;;;2.22;;
38224;SDS011;24025;48.138;11.428;2023-11-22T12:01:01;2.70;;;1.73;;
38224;SDS011;24025;48.138;11.428;2023-11-22T12:03:35;3.03;;;1.67;;
38224;SDS011;24025;48.138;11.428;2023-11-22T12:06:07;2.75;;;2.00;;
38224;SDS011;24025;48.138;11.428;2023-11-22T12:08:39;9.32;;;2.22;;
38224;SDS011;24025;48.138;11.428;2023-11-22T12:11:11;2.38;;;1.92;;
38224;SDS011;24025;48.138;11.428;2023-11-22T12:13:42;2.58;;;2.00;;
38224;SDS011;24025;48.138;11.428;2023-11-22T12:16:17;2.75;;;1.67;;
38224;SDS011;24025;48.138;11.428;2023-11-22T12:21:23;3.05;;;1.88;;
38224;SDS011;24025;48.138;11.428;2023-11-22T12:23:54;2.40;;;1.60;;
38224;SDS011;24025;48.138;11.428;2023-11-22T12:26:26;3.03;;;2.13;;
38224;SDS011;24025;48.138;11.428;2023-11-22T12:28:58;2.10;;;1.60;;
38224;SDS011;24025;48.138;11.428;2023-11-22T12:31:36;2.95;;;2.25;;
38224;SDS011;24025;48.138;11.428;2023-11-22T12:34:17;3.45;;;2.08;;
38224;SDS011;24025;48.138;11.428;2023-11-22T12:36:49;2.90;;;1.77;;
38224;SDS011;24025;48.138;11.428;2023-11-22T12:39:21;2.40;;;1.80;;
38224;SDS011;24025;48.138;11.428;2023-11-22T12:41:54;3.38;;;2.28;;
38224;SDS011;24025;48.138;11.428;2023-11-22T12:44:49;6.32;;;2.65;;
38224;SDS011;24025;48.138;11.428;2023-11-22T12:47:33;3.10;;;2.42;;
38224;SDS011;24025;48.138;11.428;2023-11-22T12:50:13;5.53;;;1.88;;
38224;SDS011;24025;48.138;11.428;2023-11-22T12:53:12;3.03;;;1.73;;
38224;SDS011;24025;48.138;11.428;2023-11-22T12:58:19;3.83;;;2.17;;
38224;SDS011;24025;48.138;11.428;2023-11-22T13:00:52;2.50;;;1.63;;
38224;SDS011;24025;48.138;11.428;2023-11-22T13:03:29;2.00;;;1.63;;
38224;SDS011;24025;48.138;11.428;2023-11-22T13:06:01;2.15;;;1.58;;
38224;SDS011;24025;48.138;11.428;2023-11-22T13:08:33;2.42;;;1.63;;
38224;SDS011;24025;48.138;11.428;2023-11-22T13:11:07;3.15;;;1.60;;
38224;SDS011;24025;48.138;11.428;2023-11-22T13:13:39;3.40;;;2.00;;
38224;SDS011;24025;48.138;11.428;2023-11-22T13:16:10;3.10;;;2.00;;
38224;SDS011;24025;48.138;11.428;2023-11-22T13:18:42;3.23;;;1.73;;
38224;SDS011;24025;48.138;11.428;2023-11-22T13:21:13;2.72;;;1.83;;
38224;SDS011;24025;48.138;11.428;2023-11-22T13:23:45;3.83;;;1.77;;
38224;SDS011;24025;48.138;11.428;2023-11-22T13:26:17;3.55;;;2.10;;
38224;SDS011;24025;48.138;11.428;2023-11-22T13:28:49;3.63;;;1.90;;
38224;SDS011;24025;48.138;11.428;2023-11-22T13:31:21;2.53;;;1.83;;
38224;SDS011;24025;48.138;11.428;2023-11-22T13:33:53;2.10;;;1.70;;
38224;SDS011;24025;48.138;11.428;2023-11-22T13:36:24;2.10;;;1.65;;
38224;SDS011;24025;48.138;11.428;2023-11-22T13:38:56;3.33;;;2.43;;
38224;SDS011;24025;48.138;11.428;2023-11-22T13:41:28;2.63;;;1.90;;
38224;SDS011;24025;48.138;11.428;2023-11-22T13:43:59;2.67;;;2.13;;
38224;SDS011;24025;48.138;11.428;2023-11-22T13:46:32;2.75;;;1.80;;
38224;SDS011;24025;48.138;11.428;2023-11-22T13:49:04;3.20;;;2.30;;
38224;SDS011;24025;48.138;11.428;2023-11-22T13:51:37;2.10;;;1.65;;
38224;SDS011;24025;48.138;11.428;2023-11-22T13:54:09;2.10;;;1.43;;
38224;SDS011;24025;48.138;11.428;2023-11-22T13:56:42;2.78;;;1.52;;
38224;SDS011;24025;48.138;11.428;2023-11-22T13:59:16;2.40;;;1.80;;
38224;SDS011;24025;48.138;11.428;2023-11-22T14:01:49;2.50;;;1.60;;
38224;SDS011;24025;48.138;11.428;2023-11-22T14:04:23;2.10;;;1.45;;
38224;SDS011;24025;48.138;11.428;2023-11-22T14:06:55;2.20;;;1.10;;
38224;SDS011;24025;48.138;11.428;2023-11-22T14:09:27;2.78;;;1.67;;
38224;SDS011;24025;48.138;11.428;2023-11-22T14:11:59;3.38;;;1.90;;
38224;SDS011;24025;48.138;11.428;2023-11-22T14:14:30;2.43;;;1.57;;
38224;SDS011;24025;48.138;11.428;2023-11-22T14:17:02;2.78;;;1.73;;
38224;SDS011;24025;48.138;11.428;2023-11-22T14:19:34;2.05;;;1.45;;
38224;SDS011;24025;48.138;11.428;2023-11-22T14:22:05;5.60;;;2.13;;
38224;SDS011;24025;48.138;11.428;2023-11-22T14:24:39;3.08;;;2.00;;
38224;SDS011;24025;48.138;11.428;2023-11-22T14:27:11;3.20;;;2.05;;
38224;SDS011;24025;48.138;11.428;2023-11-22T14:29:43;3.03;;;1.98;;
38224;SDS011;24025;48.138;11.428;2023-11-22T14:32:18;3.75;;;1.98;;
38224;SDS011;24025;48.138;11.428;2023-11-22T14:34:50;3.70;;;2.08;;
38224;SDS011;24025;48.138;11.428;2023-11-22T14:37:24;2.58;;;1.52;;
38224;SDS011;24025;48.138;11.428;2023-11-22T14:39:57;5.80;;;2.17;;
38224;SDS011;24025;48.138;11.428;2023-11-22T14:42:29;2.88;;;1.88;;
38224;SDS011;24025;48.138;11.428;2023-11-22T14:45:02;6.55;;;2.28;;
38224;SDS011;24025;48.138;11.428;2023-11-22T14:47:34;2.85;;;2.00;;
38224;SDS011;24025;48.138;11.428;2023-11-22T14:50:08;2.10;;;1.58;;
38224;SDS011;24025;48.138;11.428;2023-11-22T14:52:43;2.58;;;1.60;;
38224;SDS011;24025;48.138;11.428;2023-11-22T14:55:16;4.90;;;2.10;;
38224;SDS011;24025;48.138;11.428;2023-11-22T14:57:50;3.08;;;2.08;;
38224;SDS011;24025;48.138;11.428;2023-11-22T15:00:22;1.65;;;1.45;;
38224;SDS011;24025;48.138;11.428;2023-11-22T15:02:53;2.72;;;2.08;;
38224;SDS011;24025;48.138;11.428;2023-11-22T15:05:28;4.07;;;2.30;;
38224;SDS011;24025;48.138;11.428;2023-11-22T15:08:01;2.97;;;2.13;;
38224;SDS011;24025;48.138;11.428;2023-11-22T15:10:32;3.53;;;2.03;;
38224;SDS011;24025;48.138;11.428;2023-11-22T15:13:04;3.10;;;2.13;;
38224;SDS011;24025;48.138;11.428;2023-11-22T15:15:36;3.10;;;2.28;;
38224;SDS011;24025;48.138;11.428;2023-11-22T15:18:08;3.83;;;2.20;;
38224;SDS011;24025;48.138;11.428;2023-11-22T15:20:43;4.30;;;2.55;;
38224;SDS011;24025;48.138;11.428;2023-11-22T15:23:16;2.58;;;1.90;;
38224;SDS011;24025;48.138;11.428;2023-11-22T15:25:48;6.43;;;2.30;;
38224;SDS011;24025;48.138;11.428;2023-11-22T15:28:20;2.25;;;2.00;;
38224;SDS011;24025;48.138;11.428;2023-11-22T15:30:54;3.55;;;2.00;;
38224;SDS011;24025;48.138;11.428;2023-11-22T15:33:30;2.38;;;2.03;;
38224;SDS011;24025;48.138;11.428;2023-11-22T15:36:02;2.75;;;1.70;;